PHSF METAR and TAF | Updated Today

PHSF METAR

Bradshaw Army Airfield

Observation time: 11 min. ago

PHSF 080658Z AUTO 11018G25KT 10SM FEW190 16/04 A3029 RMK AO2 SLP139 T01600037 402000119 $

Need help? Read our tutorial on how to read METARs or read the parsed version below.

Bradshaw Army Airfield (PHSF) METAR

  • Weather conditions on Wed, 08 Dec 2021 06:58:00 +0000 (11 min. ago):
  • Present conditions: Dry
  • Clouds: A few at 5791 meters
  • Visibility: 16093 meters
  • Wind: 110 degrees at 18 knots
  • Temperature: 16 celsius
  • Dew point: 4 celsius
  • Pressure: 30.29 inHg
  • Remarks: AO2 SLP139 T01600037 402000119 $


Useful to know...